sensor_id;sensor_type;location;lat;lon;timestamp;P1;durP1;ratioP1;P2;durP2;ratioP2
66175;SDS011;52977;44.816;20.538;2023-02-21T00:00:11;15.63;;;5.68;;
66175;SDS011;52977;44.816;20.538;2023-02-21T00:03:10;15.73;;;5.75;;
66175;SDS011;52977;44.816;20.538;2023-02-21T00:05:55;13.63;;;5.80;;
66175;SDS011;52977;44.816;20.538;2023-02-21T00:08:40;14.55;;;5.70;;
66175;SDS011;52977;44.816;20.538;2023-02-21T00:11:24;14.45;;;5.88;;
66175;SDS011;52977;44.816;20.538;2023-02-21T00:14:08;14.02;;;6.07;;
66175;SDS011;52977;44.816;20.538;2023-02-21T00:16:52;16.02;;;7.13;;
66175;SDS011;52977;44.816;20.538;2023-02-21T00:19:36;17.35;;;6.47;;
66175;SDS011;52977;44.816;20.538;2023-02-21T00:22:21;14.73;;;6.18;;
66175;SDS011;52977;44.816;20.538;2023-02-21T00:25:05;16.75;;;6.05;;
66175;SDS011;52977;44.816;20.538;2023-02-21T00:27:49;13.43;;;5.85;;
66175;SDS011;52977;44.816;20.538;2023-02-21T00:30:33;12.27;;;5.63;;
66175;SDS011;52977;44.816;20.538;2023-02-21T00:33:17;15.57;;;6.03;;
66175;SDS011;52977;44.816;20.538;2023-02-21T00:36:02;13.68;;;5.28;;
66175;SDS011;52977;44.816;20.538;2023-02-21T00:38:47;12.80;;;5.38;;
66175;SDS011;52977;44.816;20.538;2023-02-21T00:41:31;12.88;;;5.50;;
66175;SDS011;52977;44.816;20.538;2023-02-21T00:44:15;15.27;;;5.57;;
66175;SDS011;52977;44.816;20.538;2023-02-21T00:46:59;12.00;;;5.22;;
66175;SDS011;52977;44.816;20.538;2023-02-21T00:49:44;12.88;;;5.57;;
66175;SDS011;52977;44.816;20.538;2023-02-21T00:52:28;13.52;;;5.75;;
66175;SDS011;52977;44.816;20.538;2023-02-21T00:55:12;11.63;;;5.10;;
66175;SDS011;52977;44.816;20.538;2023-02-21T00:57:56;12.25;;;4.88;;
66175;SDS011;52977;44.816;20.538;2023-02-21T01:00:40;11.85;;;4.70;;
66175;SDS011;52977;44.816;20.538;2023-02-21T01:03:25;14.05;;;4.57;;
66175;SDS011;52977;44.816;20.538;2023-02-21T01:06:10;12.25;;;4.80;;
66175;SDS011;52977;44.816;20.538;2023-02-21T01:08:55;10.73;;;4.85;;
66175;SDS011;52977;44.816;20.538;2023-02-21T01:11:39;12.05;;;4.80;;
66175;SDS011;52977;44.816;20.538;2023-02-21T01:14:24;11.18;;;4.35;;
66175;SDS011;52977;44.816;20.538;2023-02-21T01:17:08;11.88;;;4.68;;
66175;SDS011;52977;44.816;20.538;2023-02-21T01:19:52;9.32;;;4.13;;
66175;SDS011;52977;44.816;20.538;2023-02-21T01:22:36;11.43;;;5.22;;
66175;SDS011;52977;44.816;20.538;2023-02-21T01:25:21;9.65;;;4.60;;
66175;SDS011;52977;44.816;20.538;2023-02-21T01:28:05;12.20;;;4.47;;
66175;SDS011;52977;44.816;20.538;2023-02-21T01:30:49;12.70;;;4.60;;
66175;SDS011;52977;44.816;20.538;2023-02-21T01:33:35;11.13;;;4.80;;
66175;SDS011;52977;44.816;20.538;2023-02-21T01:36:22;10.15;;;4.43;;
66175;SDS011;52977;44.816;20.538;2023-02-21T01:39:07;12.98;;;4.80;;
66175;SDS011;52977;44.816;20.538;2023-02-21T01:41:52;15.10;;;4.82;;
66175;SDS011;52977;44.816;20.538;2023-02-21T01:44:41;12.20;;;4.13;;
66175;SDS011;52977;44.816;20.538;2023-02-21T01:47:28;11.25;;;4.28;;
66175;SDS011;52977;44.816;20.538;2023-02-21T01:50:27;11.63;;;4.35;;
66175;SDS011;52977;44.816;20.538;2023-02-21T01:53:18;9.25;;;4.05;;
66175;SDS011;52977;44.816;20.538;2023-02-21T01:56:05;11.30;;;4.30;;
66175;SDS011;52977;44.816;20.538;2023-02-21T01:58:51;10.10;;;4.05;;
66175;SDS011;52977;44.816;20.538;2023-02-21T02:04:59;9.13;;;4.15;;
66175;SDS011;52977;44.816;20.538;2023-02-21T02:07:44;9.88;;;4.28;;
66175;SDS011;52977;44.816;20.538;2023-02-21T02:10:29;7.45;;;3.70;;
66175;SDS011;52977;44.816;20.538;2023-02-21T02:13:35;10.13;;;4.72;;
66175;SDS011;52977;44.816;20.538;2023-02-21T02:21:49;8.13;;;4.10;;
66175;SDS011;52977;44.816;20.538;2023-02-21T02:24:57;10.63;;;4.50;;
66175;SDS011;52977;44.816;20.538;2023-02-21T02:27:36;10.73;;;3.88;;
66175;SDS011;52977;44.816;20.538;2023-02-21T02:42:01;10.10;;;3.65;;
66175;SDS011;52977;44.816;20.538;2023-02-21T02:44:39;11.35;;;3.90;;
66175;SDS011;52977;44.816;20.538;2023-02-21T02:47:09;10.45;;;4.07;;
66175;SDS011;52977;44.816;20.538;2023-02-21T02:49:40;10.00;;;3.78;;
66175;SDS011;52977;44.816;20.538;2023-02-21T02:52:08;8.68;;;4.30;;
66175;SDS011;52977;44.816;20.538;2023-02-21T02:54:35;9.65;;;4.20;;
66175;SDS011;52977;44.816;20.538;2023-02-21T02:57:02;7.70;;;3.60;;
66175;SDS011;52977;44.816;20.538;2023-02-21T02:59:36;10.98;;;3.90;;
66175;SDS011;52977;44.816;20.538;2023-02-21T03:07:55;9.45;;;3.72;;
66175;SDS011;52977;44.816;20.538;2023-02-21T03:13:14;9.85;;;3.50;;
66175;SDS011;52977;44.816;20.538;2023-02-21T03:16:49;8.70;;;3.80;;
66175;SDS011;52977;44.816;20.538;2023-02-21T03:19:02;9.20;;;3.50;;
66175;SDS011;52977;44.816;20.538;2023-02-21T03:21:35;10.40;;;3.88;;
66175;SDS011;52977;44.816;20.538;2023-02-21T03:24:07;9.60;;;3.72;;
66175;SDS011;52977;44.816;20.538;2023-02-21T03:26:36;8.98;;;4.00;;
66175;SDS011;52977;44.816;20.538;2023-02-21T03:29:24;6.40;;;3.30;;
66175;SDS011;52977;44.816;20.538;2023-02-21T03:31:54;11.35;;;4.20;;
66175;SDS011;52977;44.816;20.538;2023-02-21T03:34:22;8.50;;;3.42;;
66175;SDS011;52977;44.816;20.538;2023-02-21T03:36:48;9.35;;;4.00;;
66175;SDS011;52977;44.816;20.538;2023-02-21T03:39:16;8.20;;;3.33;;
66175;SDS011;52977;44.816;20.538;2023-02-21T03:41:42;8.98;;;3.70;;
66175;SDS011;52977;44.816;20.538;2023-02-21T03:44:08;7.40;;;3.33;;
66175;SDS011;52977;44.816;20.538;2023-02-21T03:46:33;8.52;;;3.17;;
66175;SDS011;52977;44.816;20.538;2023-02-21T03:48:59;8.07;;;3.40;;
66175;SDS011;52977;44.816;20.538;2023-02-21T03:51:27;7.07;;;3.20;;
66175;SDS011;52977;44.816;20.538;2023-02-21T03:53:54;8.88;;;3.50;;
66175;SDS011;52977;44.816;20.538;2023-02-21T03:56:26;7.35;;;3.13;;
66175;SDS011;52977;44.816;20.538;2023-02-21T03:59:00;8.57;;;3.35;;
66175;SDS011;52977;44.816;20.538;2023-02-21T04:01:30;7.93;;;3.20;;
66175;SDS011;52977;44.816;20.538;2023-02-21T04:03:57;7.43;;;2.95;;
66175;SDS011;52977;44.816;20.538;2023-02-21T04:06:25;7.47;;;3.10;;
66175;SDS011;52977;44.816;20.538;2023-02-21T04:08:50;9.20;;;3.42;;
66175;SDS011;52977;44.816;20.538;2023-02-21T04:11:19;8.98;;;3.47;;
66175;SDS011;52977;44.816;20.538;2023-02-21T04:13:46;9.25;;;3.42;;
66175;SDS011;52977;44.816;20.538;2023-02-21T04:16:12;7.40;;;3.40;;
66175;SDS011;52977;44.816;20.538;2023-02-21T04:18:39;9.50;;;3.50;;
66175;SDS011;52977;44.816;20.538;2023-02-21T04:21:07;9.95;;;3.83;;
66175;SDS011;52977;44.816;20.538;2023-02-21T04:23:33;8.18;;;3.83;;
66175;SDS011;52977;44.816;20.538;2023-02-21T04:25:59;7.65;;;3.90;;
66175;SDS011;52977;44.816;20.538;2023-02-21T04:28:35;7.90;;;3.25;;
66175;SDS011;52977;44.816;20.538;2023-02-21T04:31:02;11.40;;;5.20;;
66175;SDS011;52977;44.816;20.538;2023-02-21T04:33:28;16.23;;;7.20;;
66175;SDS011;52977;44.816;20.538;2023-02-21T04:35:55;14.38;;;6.63;;
66175;SDS011;52977;44.816;20.538;2023-02-21T04:38:25;12.30;;;6.22;;
66175;SDS011;52977;44.816;20.538;2023-02-21T04:40:52;18.98;;;7.82;;
66175;SDS011;52977;44.816;20.538;2023-02-21T04:43:18;20.17;;;9.00;;
66175;SDS011;52977;44.816;20.538;2023-02-21T04:45:46;24.00;;;9.57;;
66175;SDS011;52977;44.816;20.538;2023-02-21T04:48:12;21.45;;;9.30;;
66175;SDS011;52977;44.816;20.538;2023-02-21T04:50:38;22.60;;;9.48;;
66175;SDS011;52977;44.816;20.538;2023-02-21T04:53:04;18.77;;;9.23;;
66175;SDS011;52977;44.816;20.538;2023-02-21T04:55:31;19.00;;;8.98;;
66175;SDS011;52977;44.816;20.538;2023-02-21T04:57:56;21.73;;;9.52;;
66175;SDS011;52977;44.816;20.538;2023-02-21T05:00:23;19.42;;;8.77;;
66175;SDS011;52977;44.816;20.538;2023-02-21T05:02:48;25.48;;;10.05;;
66175;SDS011;52977;44.816;20.538;2023-02-21T05:05:14;19.02;;;9.10;;
66175;SDS011;52977;44.816;20.538;2023-02-21T05:07:41;22.70;;;8.90;;
66175;SDS011;52977;44.816;20.538;2023-02-21T05:10:07;22.60;;;9.48;;
66175;SDS011;52977;44.816;20.538;2023-02-21T05:12:35;23.23;;;9.43;;
66175;SDS011;52977;44.816;20.538;2023-02-21T05:15:03;15.82;;;7.05;;
66175;SDS011;52977;44.816;20.538;2023-02-21T05:17:29;23.05;;;9.18;;
66175;SDS011;52977;44.816;20.538;2023-02-21T05:19:56;18.38;;;8.48;;
66175;SDS011;52977;44.816;20.538;2023-02-21T05:22:22;20.88;;;9.95;;
66175;SDS011;52977;44.816;20.538;2023-02-21T05:24:49;18.67;;;9.38;;
66175;SDS011;52977;44.816;20.538;2023-02-21T05:27:16;23.38;;;9.73;;
66175;SDS011;52977;44.816;20.538;2023-02-21T05:29:47;21.00;;;9.20;;
66175;SDS011;52977;44.816;20.538;2023-02-21T05:32:17;23.38;;;8.88;;
66175;SDS011;52977;44.816;20.538;2023-02-21T05:34:45;22.77;;;9.48;;
66175;SDS011;52977;44.816;20.538;2023-02-21T05:37:13;19.45;;;9.00;;
66175;SDS011;52977;44.816;20.538;2023-02-21T05:39:39;24.33;;;9.77;;
66175;SDS011;52977;44.816;20.538;2023-02-21T05:42:05;21.13;;;8.85;;
66175;SDS011;52977;44.816;20.538;2023-02-21T05:44:32;23.42;;;9.07;;
66175;SDS011;52977;44.816;20.538;2023-02-21T05:46:59;21.27;;;8.20;;
66175;SDS011;52977;44.816;20.538;2023-02-21T05:49:27;18.00;;;8.57;;
66175;SDS011;52977;44.816;20.538;2023-02-21T05:51:53;17.40;;;8.10;;
66175;SDS011;52977;44.816;20.538;2023-02-21T05:54:20;19.15;;;8.63;;
66175;SDS011;52977;44.816;20.538;2023-02-21T05:56:48;23.98;;;9.45;;
66175;SDS011;52977;44.816;20.538;2023-02-21T05:59:16;17.23;;;9.10;;
66175;SDS011;52977;44.816;20.538;2023-02-21T06:01:44;19.63;;;8.40;;
66175;SDS011;52977;44.816;20.538;2023-02-21T06:04:11;20.15;;;8.82;;
66175;SDS011;52977;44.816;20.538;2023-02-21T06:06:37;17.80;;;8.23;;
66175;SDS011;52977;44.816;20.538;2023-02-21T06:09:04;20.45;;;8.90;;
66175;SDS011;52977;44.816;20.538;2023-02-21T06:11:31;17.83;;;8.55;;
66175;SDS011;52977;44.816;20.538;2023-02-21T06:14:00;27.30;;;11.27;;
66175;SDS011;52977;44.816;20.538;2023-02-21T06:18:57;37.03;;;15.18;;
66175;SDS011;52977;44.816;20.538;2023-02-21T06:21:23;35.17;;;15.60;;
66175;SDS011;52977;44.816;20.538;2023-02-21T06:23:50;25.67;;;12.48;;
66175;SDS011;52977;44.816;20.538;2023-02-21T06:26:16;23.48;;;11.20;;
66175;SDS011;52977;44.816;20.538;2023-02-21T06:28:43;27.20;;;11.10;;
66175;SDS011;52977;44.816;20.538;2023-02-21T06:31:09;25.63;;;11.10;;
66175;SDS011;52977;44.816;20.538;2023-02-21T06:33:35;24.42;;;10.00;;
66175;SDS011;52977;44.816;20.538;2023-02-21T06:36:09;24.00;;;10.98;;
66175;SDS011;52977;44.816;20.538;2023-02-21T06:38:36;26.33;;;11.05;;
66175;SDS011;52977;44.816;20.538;2023-02-21T06:41:06;21.55;;;10.27;;
66175;SDS011;52977;44.816;20.538;2023-02-21T06:43:32;23.20;;;11.52;;
66175;SDS011;52977;44.816;20.538;2023-02-21T06:46:00;25.45;;;11.30;;
66175;SDS011;52977;44.816;20.538;2023-02-21T06:48:27;22.98;;;12.05;;
66175;SDS011;52977;44.816;20.538;2023-02-21T06:50:54;22.95;;;10.45;;
66175;SDS011;52977;44.816;20.538;2023-02-21T06:53:20;22.25;;;9.45;;
66175;SDS011;52977;44.816;20.538;2023-02-21T06:55:46;18.92;;;8.48;;
66175;SDS011;52977;44.816;20.538;2023-02-21T06:58:12;19.48;;;8.02;;
66175;SDS011;52977;44.816;20.538;2023-02-21T07:00:39;13.88;;;6.90;;
66175;SDS011;52977;44.816;20.538;2023-02-21T07:03:05;13.48;;;6.85;;
66175;SDS011;52977;44.816;20.538;2023-02-21T07:05:31;16.10;;;7.22;;
66175;SDS011;52977;44.816;20.538;2023-02-21T07:08:03;13.43;;;6.53;;
66175;SDS011;52977;44.816;20.538;2023-02-21T07:10:29;18.48;;;7.05;;
66175;SDS011;52977;44.816;20.538;2023-02-21T07:12:55;18.67;;;7.22;;
66175;SDS011;52977;44.816;20.538;2023-02-21T07:15:22;16.75;;;8.02;;
66175;SDS011;52977;44.816;20.538;2023-02-21T07:17:48;17.92;;;8.07;;
66175;SDS011;52977;44.816;20.538;2023-02-21T07:20:14;17.95;;;7.70;;
66175;SDS011;52977;44.816;20.538;2023-02-21T07:22:40;14.50;;;7.20;;
66175;SDS011;52977;44.816;20.538;2023-02-21T07:25:06;15.02;;;6.70;;
66175;SDS011;52977;44.816;20.538;2023-02-21T07:27:32;14.20;;;7.05;;
66175;SDS011;52977;44.816;20.538;2023-02-21T07:29:58;12.63;;;7.18;;
66175;SDS011;52977;44.816;20.538;2023-02-21T07:32:24;14.30;;;7.25;;
66175;SDS011;52977;44.816;20.538;2023-02-21T07:34:50;14.23;;;6.63;;
66175;SDS011;52977;44.816;20.538;2023-02-21T07:37:16;15.10;;;6.80;;
66175;SDS011;52977;44.816;20.538;2023-02-21T07:39:43;16.00;;;6.88;;
66175;SDS011;52977;44.816;20.538;2023-02-21T07:42:09;15.32;;;6.32;;
66175;SDS011;52977;44.816;20.538;2023-02-21T07:44:37;16.23;;;8.00;;
66175;SDS011;52977;44.816;20.538;2023-02-21T07:47:03;15.65;;;7.40;;
66175;SDS011;52977;44.816;20.538;2023-02-21T07:49:29;14.57;;;6.38;;
66175;SDS011;52977;44.816;20.538;2023-02-21T07:51:55;15.20;;;5.97;;
66175;SDS011;52977;44.816;20.538;2023-02-21T07:54:22;14.48;;;6.18;;
66175;SDS011;52977;44.816;20.538;2023-02-21T07:56:48;11.48;;;6.00;;
66175;SDS011;52977;44.816;20.538;2023-02-21T07:59:14;12.02;;;5.03;;
66175;SDS011;52977;44.816;20.538;2023-02-21T08:01:40;10.13;;;5.68;;
66175;SDS011;52977;44.816;20.538;2023-02-21T08:04:07;15.13;;;5.80;;
66175;SDS011;52977;44.816;20.538;2023-02-21T08:06:33;14.77;;;6.00;;
66175;SDS011;52977;44.816;20.538;2023-02-21T08:08:59;10.93;;;5.50;;
66175;SDS011;52977;44.816;20.538;2023-02-21T08:11:26;20.38;;;6.45;;
66175;SDS011;52977;44.816;20.538;2023-02-21T08:13:52;42.10;;;12.77;;
66175;SDS011;52977;44.816;20.538;2023-02-21T08:16:18;54.42;;;18.17;;
66175;SDS011;52977;44.816;20.538;2023-02-21T08:18:47;41.47;;;14.38;;
66175;SDS011;52977;44.816;20.538;2023-02-21T08:21:15;19.73;;;7.50;;
66175;SDS011;52977;44.816;20.538;2023-02-21T08:23:41;23.92;;;8.07;;
66175;SDS011;52977;44.816;20.538;2023-02-21T08:26:07;16.88;;;6.90;;
66175;SDS011;52977;44.816;20.538;2023-02-21T08:28:33;14.73;;;6.88;;
66175;SDS011;52977;44.816;20.538;2023-02-21T08:30:59;13.85;;;6.75;;
66175;SDS011;52977;44.816;20.538;2023-02-21T08:33:25;11.48;;;5.85;;
66175;SDS011;52977;44.816;20.538;2023-02-21T08:39:45;19.10;;;7.05;;
66175;SDS011;52977;44.816;20.538;2023-02-21T08:42:13;15.35;;;6.35;;
66175;SDS011;52977;44.816;20.538;2023-02-21T08:44:41;18.05;;;7.18;;
66175;SDS011;52977;44.816;20.538;2023-02-21T08:47:08;14.80;;;6.70;;
66175;SDS011;52977;44.816;20.538;2023-02-21T08:49:34;16.23;;;7.45;;
66175;SDS011;52977;44.816;20.538;2023-02-21T08:52:05;18.85;;;7.88;;
66175;SDS011;52977;44.816;20.538;2023-02-21T08:54:32;17.63;;;7.53;;
66175;SDS011;52977;44.816;20.538;2023-02-21T08:56:58;15.93;;;7.82;;
66175;SDS011;52977;44.816;20.538;2023-02-21T08:59:24;17.33;;;7.63;;
66175;SDS011;52977;44.816;20.538;2023-02-21T09:01:52;18.58;;;9.13;;
66175;SDS011;52977;44.816;20.538;2023-02-21T09:04:18;21.35;;;8.27;;
66175;SDS011;52977;44.816;20.538;2023-02-21T09:06:45;17.35;;;8.10;;
66175;SDS011;52977;44.816;20.538;2023-02-21T09:09:11;20.02;;;8.75;;
66175;SDS011;52977;44.816;20.538;2023-02-21T09:11:37;25.67;;;9.13;;
66175;SDS011;52977;44.816;20.538;2023-02-21T09:14:03;19.65;;;7.78;;
66175;SDS011;52977;44.816;20.538;2023-02-21T09:16:31;19.77;;;7.88;;
66175;SDS011;52977;44.816;20.538;2023-02-21T09:18:58;17.95;;;7.57;;
66175;SDS011;52977;44.816;20.538;2023-02-21T09:21:29;15.02;;;7.20;;
66175;SDS011;52977;44.816;20.538;2023-02-21T09:23:55;16.55;;;6.78;;
66175;SDS011;52977;44.816;20.538;2023-02-21T09:26:24;10.75;;;6.03;;
66175;SDS011;52977;44.816;20.538;2023-02-21T09:28:51;15.48;;;7.25;;
66175;SDS011;52977;44.816;20.538;2023-02-21T09:31:17;14.02;;;7.07;;
66175;SDS011;52977;44.816;20.538;2023-02-21T09:33:45;15.38;;;7.70;;
66175;SDS011;52977;44.816;20.538;2023-02-21T09:36:11;19.35;;;8.05;;
66175;SDS011;52977;44.816;20.538;2023-02-21T09:38:38;17.23;;;7.55;;
66175;SDS011;52977;44.816;20.538;2023-02-21T09:41:07;13.68;;;6.85;;
66175;SDS011;52977;44.816;20.538;2023-02-21T09:43:37;19.50;;;7.38;;
66175;SDS011;52977;44.816;20.538;2023-02-21T09:46:12;15.02;;;6.00;;
66175;SDS011;52977;44.816;20.538;2023-02-21T09:48:43;11.90;;;6.13;;
66175;SDS011;52977;44.816;20.538;2023-02-21T09:51:10;14.57;;;5.15;;
66175;SDS011;52977;44.816;20.538;2023-02-21T09:53:38;13.48;;;4.63;;
66175;SDS011;52977;44.816;20.538;2023-02-21T09:56:17;13.85;;;4.35;;
66175;SDS011;52977;44.816;20.538;2023-02-21T09:58:52;12.00;;;5.40;;
66175;SDS011;52977;44.816;20.538;2023-02-21T10:04:16;11.07;;;5.20;;
66175;SDS011;52977;44.816;20.538;2023-02-21T10:06:54;16.88;;;5.70;;
66175;SDS011;52977;44.816;20.538;2023-02-21T10:09:48;13.80;;;5.18;;
66175;SDS011;52977;44.816;20.538;2023-02-21T10:12:25;15.30;;;6.82;;
66175;SDS011;52977;44.816;20.538;2023-02-21T10:20:12;11.02;;;5.03;;
66175;SDS011;52977;44.816;20.538;2023-02-21T10:25:19;14.43;;;5.55;;
66175;SDS011;52977;44.816;20.538;2023-02-21T10:27:46;10.93;;;5.43;;
66175;SDS011;52977;44.816;20.538;2023-02-21T10:30:17;13.80;;;4.97;;
66175;SDS011;52977;44.816;20.538;2023-02-21T10:32:50;11.77;;;4.65;;
66175;SDS011;52977;44.816;20.538;2023-02-21T10:35:17;12.35;;;5.20;;
66175;SDS011;52977;44.816;20.538;2023-02-21T10:37:45;11.45;;;5.13;;
66175;SDS011;52977;44.816;20.538;2023-02-21T10:40:30;11.30;;;4.28;;
66175;SDS011;52977;44.816;20.538;2023-02-21T10:43:09;8.40;;;4.22;;
66175;SDS011;52977;44.816;20.538;2023-02-21T10:46:46;8.30;;;4.35;;
66175;SDS011;52977;44.816;20.538;2023-02-21T10:48:51;11.73;;;4.70;;
66175;SDS011;52977;44.816;20.538;2023-02-21T10:51:31;8.65;;;4.47;;
66175;SDS011;52977;44.816;20.538;2023-02-21T10:56:47;14.43;;;5.00;;
66175;SDS011;52977;44.816;20.538;2023-02-21T10:59:18;9.95;;;4.63;;
66175;SDS011;52977;44.816;20.538;2023-02-21T11:01:49;15.60;;;5.80;;
66175;SDS011;52977;44.816;20.538;2023-02-21T11:06:45;9.38;;;4.97;;
66175;SDS011;52977;44.816;20.538;2023-02-21T11:09:36;13.27;;;4.80;;
66175;SDS011;52977;44.816;20.538;2023-02-21T11:14:31;15.05;;;4.65;;
66175;SDS011;52977;44.816;20.538;2023-02-21T11:17:19;11.85;;;5.68;;
66175;SDS011;52977;44.816;20.538;2023-02-21T11:19:50;11.68;;;4.97;;
66175;SDS011;52977;44.816;20.538;2023-02-21T11:22:18;11.93;;;4.85;;
66175;SDS011;52977;44.816;20.538;2023-02-21T11:24:49;14.43;;;5.10;;
66175;SDS011;52977;44.816;20.538;2023-02-21T11:27:20;12.23;;;5.00;;
66175;SDS011;52977;44.816;20.538;2023-02-21T11:29:47;10.63;;;4.97;;
66175;SDS011;52977;44.816;20.538;2023-02-21T11:32:18;10.82;;;4.30;;
66175;SDS011;52977;44.816;20.538;2023-02-21T11:35:03;8.05;;;3.63;;
66175;SDS011;52977;44.816;20.538;2023-02-21T11:39:57;13.00;;;3.63;;
66175;SDS011;52977;44.816;20.538;2023-02-21T11:42:27;9.68;;;3.55;;
66175;SDS011;52977;44.816;20.538;2023-02-21T11:45:28;10.38;;;4.00;;
66175;SDS011;52977;44.816;20.538;2023-02-21T11:48:00;10.07;;;4.10;;
66175;SDS011;52977;44.816;20.538;2023-02-21T11:50:32;10.00;;;4.00;;
66175;SDS011;52977;44.816;20.538;2023-02-21T11:53:16;8.52;;;3.60;;
66175;SDS011;52977;44.816;20.538;2023-02-21T11:58:29;10.05;;;3.65;;
66175;SDS011;52977;44.816;20.538;2023-02-21T12:01:08;12.00;;;3.85;;
66175;SDS011;52977;44.816;20.538;2023-02-21T12:07:03;7.22;;;3.75;;
66175;SDS011;52977;44.816;20.538;2023-02-21T12:09:55;8.85;;;4.05;;
66175;SDS011;52977;44.816;20.538;2023-02-21T12:12:42;10.52;;;4.13;;
66175;SDS011;52977;44.816;20.538;2023-02-21T12:15:15;8.70;;;4.20;;
66175;SDS011;52977;44.816;20.538;2023-02-21T12:20:52;9.32;;;4.60;;
66175;SDS011;52977;44.816;20.538;2023-02-21T12:27:18;7.13;;;4.03;;
66175;SDS011;52977;44.816;20.538;2023-02-21T12:38:13;8.23;;;3.92;;
66175;SDS011;52977;44.816;20.538;2023-02-21T12:40:57;11.70;;;4.47;;
66175;SDS011;52977;44.816;20.538;2023-02-21T12:51:24;9.70;;;3.40;;
66175;SDS011;52977;44.816;20.538;2023-02-21T12:53:56;6.53;;;3.40;;
66175;SDS011;52977;44.816;20.538;2023-02-21T12:56:31;6.68;;;3.63;;
66175;SDS011;52977;44.816;20.538;2023-02-21T12:59:02;8.30;;;3.67;;
66175;SDS011;52977;44.816;20.538;2023-02-21T13:01:39;12.10;;;3.55;;
66175;SDS011;52977;44.816;20.538;2023-02-21T13:07:07;7.30;;;3.10;;
66175;SDS011;52977;44.816;20.538;2023-02-21T13:12:32;7.07;;;2.90;;
66175;SDS011;52977;44.816;20.538;2023-02-21T13:17:37;6.82;;;3.50;;
66175;SDS011;52977;44.816;20.538;2023-02-21T13:20:15;6.60;;;3.40;;
66175;SDS011;52977;44.816;20.538;2023-02-21T13:28:36;6.45;;;3.55;;
66175;SDS011;52977;44.816;20.538;2023-02-21T13:31:04;8.20;;;3.30;;
66175;SDS011;52977;44.816;20.538;2023-02-21T13:33:54;8.25;;;4.00;;
66175;SDS011;52977;44.816;20.538;2023-02-21T13:36:28;8.00;;;3.83;;
66175;SDS011;52977;44.816;20.538;2023-02-21T13:41:50;8.98;;;4.03;;
66175;SDS011;52977;44.816;20.538;2023-02-21T13:47:00;5.97;;;3.47;;
66175;SDS011;52977;44.816;20.538;2023-02-21T13:57:45;9.23;;;4.00;;
66175;SDS011;52977;44.816;20.538;2023-02-21T14:08:22;7.65;;;3.67;;
66175;SDS011;52977;44.816;20.538;2023-02-21T14:10:59;8.35;;;3.38;;
66175;SDS011;52977;44.816;20.538;2023-02-21T14:13:48;7.38;;;3.42;;
66175;SDS011;52977;44.816;20.538;2023-02-21T14:18:48;6.40;;;2.83;;
66175;SDS011;52977;44.816;20.538;2023-02-21T14:24:02;8.25;;;2.90;;
66175;SDS011;52977;44.816;20.538;2023-02-21T14:29:12;5.93;;;2.30;;
66175;SDS011;52977;44.816;20.538;2023-02-21T15:07:58;14.00;;;4.30;;
66175;SDS011;52977;44.816;20.538;2023-02-21T15:10:39;7.95;;;3.42;;
66175;SDS011;52977;44.816;20.538;2023-02-21T15:13:18;9.48;;;3.90;;
66175;SDS011;52977;44.816;20.538;2023-02-21T15:18:30;10.68;;;3.85;;
66175;SDS011;52977;44.816;20.538;2023-02-21T15:21:21;8.65;;;3.67;;
66175;SDS011;52977;44.816;20.538;2023-02-21T15:23:48;10.07;;;4.18;;
66175;SDS011;52977;44.816;20.538;2023-02-21T15:26:28;10.65;;;4.00;;
66175;SDS011;52977;44.816;20.538;2023-02-21T15:29:06;11.35;;;4.78;;
66175;SDS011;52977;44.816;20.538;2023-02-21T15:36:47;10.63;;;4.30;;
66175;SDS011;52977;44.816;20.538;2023-02-21T15:39:22;10.77;;;4.35;;
66175;SDS011;52977;44.816;20.538;2023-02-21T15:41:56;10.68;;;3.58;;
66175;SDS011;52977;44.816;20.538;2023-02-21T15:44:26;8.68;;;4.10;;
66175;SDS011;52977;44.816;20.538;2023-02-21T15:46:58;8.13;;;3.97;;
66175;SDS011;52977;44.816;20.538;2023-02-21T15:49:27;8.80;;;4.15;;
66175;SDS011;52977;44.816;20.538;2023-02-21T15:51:56;10.80;;;4.13;;
66175;SDS011;52977;44.816;20.538;2023-02-21T15:54:24;12.93;;;5.15;;
66175;SDS011;52977;44.816;20.538;2023-02-21T15:57:00;13.55;;;5.78;;
66175;SDS011;52977;44.816;20.538;2023-02-21T15:59:33;11.80;;;5.47;;
66175;SDS011;52977;44.816;20.538;2023-02-21T16:04:36;18.15;;;5.88;;
66175;SDS011;52977;44.816;20.538;2023-02-21T16:07:19;14.43;;;6.28;;
66175;SDS011;52977;44.816;20.538;2023-02-21T16:09:49;19.65;;;8.90;;
66175;SDS011;52977;44.816;20.538;2023-02-21T16:12:27;29.15;;;11.77;;
66175;SDS011;52977;44.816;20.538;2023-02-21T16:15:00;25.65;;;10.82;;
66175;SDS011;52977;44.816;20.538;2023-02-21T16:17:44;28.98;;;12.07;;
66175;SDS011;52977;44.816;20.538;2023-02-21T16:20:17;28.42;;;12.48;;
66175;SDS011;52977;44.816;20.538;2023-02-21T16:22:45;34.08;;;15.43;;
66175;SDS011;52977;44.816;20.538;2023-02-21T16:25:14;47.60;;;22.17;;
66175;SDS011;52977;44.816;20.538;2023-02-21T16:27:51;55.95;;;26.42;;
66175;SDS011;52977;44.816;20.538;2023-02-21T16:30:27;52.75;;;25.50;;
66175;SDS011;52977;44.816;20.538;2023-02-21T16:33:00;48.20;;;23.85;;
66175;SDS011;52977;44.816;20.538;2023-02-21T16:35:28;44.45;;;20.98;;
66175;SDS011;52977;44.816;20.538;2023-02-21T16:37:57;35.45;;;18.38;;
66175;SDS011;52977;44.816;20.538;2023-02-21T16:40:28;32.20;;;16.52;;
66175;SDS011;52977;44.816;20.538;2023-02-21T16:42:57;26.60;;;13.43;;
66175;SDS011;52977;44.816;20.538;2023-02-21T16:45:26;18.75;;;10.38;;
66175;SDS011;52977;44.816;20.538;2023-02-21T16:48:00;20.17;;;8.90;;
66175;SDS011;52977;44.816;20.538;2023-02-21T16:50:30;16.88;;;9.07;;
66175;SDS011;52977;44.816;20.538;2023-02-21T16:53:01;17.80;;;8.00;;
66175;SDS011;52977;44.816;20.538;2023-02-21T16:55:28;15.85;;;6.80;;
66175;SDS011;52977;44.816;20.538;2023-02-21T16:57:57;14.65;;;6.80;;
66175;SDS011;52977;44.816;20.538;2023-02-21T17:00:25;15.02;;;7.05;;
66175;SDS011;52977;44.816;20.538;2023-02-21T17:02:52;15.07;;;7.20;;
66175;SDS011;52977;44.816;20.538;2023-02-21T17:05:19;15.80;;;6.13;;
66175;SDS011;52977;44.816;20.538;2023-02-21T17:07:47;12.02;;;5.82;;
66175;SDS011;52977;44.816;20.538;2023-02-21T17:10:14;15.27;;;6.15;;
66175;SDS011;52977;44.816;20.538;2023-02-21T17:12:41;15.27;;;6.20;;
66175;SDS011;52977;44.816;20.538;2023-02-21T17:15:07;11.27;;;5.68;;
66175;SDS011;52977;44.816;20.538;2023-02-21T17:17:45;15.60;;;5.20;;
66175;SDS011;52977;44.816;20.538;2023-02-21T17:20:14;13.18;;;5.65;;
66175;SDS011;52977;44.816;20.538;2023-02-21T17:22:42;14.48;;;5.88;;
66175;SDS011;52977;44.816;20.538;2023-02-21T17:25:09;13.20;;;5.85;;
66175;SDS011;52977;44.816;20.538;2023-02-21T17:27:35;17.02;;;6.20;;
66175;SDS011;52977;44.816;20.538;2023-02-21T17:30:02;15.30;;;7.05;;
66175;SDS011;52977;44.816;20.538;2023-02-21T17:32:29;13.10;;;6.75;;
66175;SDS011;52977;44.816;20.538;2023-02-21T17:34:56;10.13;;;6.10;;
66175;SDS011;52977;44.816;20.538;2023-02-21T17:37:22;18.98;;;7.10;;
66175;SDS011;52977;44.816;20.538;2023-02-21T17:39:52;12.30;;;6.68;;
66175;SDS011;52977;44.816;20.538;2023-02-21T17:42:22;15.80;;;6.72;;
66175;SDS011;52977;44.816;20.538;2023-02-21T17:44:49;14.25;;;6.97;;
66175;SDS011;52977;44.816;20.538;2023-02-21T17:47:19;14.38;;;6.90;;
66175;SDS011;52977;44.816;20.538;2023-02-21T17:49:48;15.60;;;7.45;;